createdAt,value
2017-02-27T04:00:51.185Z,1004.52
2017-02-27T04:01:16.665Z,1004.5
2017-02-27T04:01:42.241Z,1004.49
2017-02-27T04:02:07.791Z,1004.52
2017-02-27T04:02:33.406Z,1004.53
2017-02-27T04:02:58.961Z,1004.53
2017-02-27T04:03:25.319Z,1004.51
2017-02-27T04:03:50.872Z,1004.53
2017-02-27T04:04:16.477Z,1004.5
2017-02-27T04:04:42.052Z,1004.45
2017-02-27T04:05:07.642Z,1004.51
2017-02-27T04:05:33.254Z,1004.47
2017-02-27T04:05:58.834Z,1004.47
2017-02-27T04:06:24.521Z,1004.51
2017-02-27T04:06:50.078Z,1004.5
2017-02-27T04:07:15.722Z,1004.48
2017-02-27T04:07:41.374Z,1004.5
2017-02-27T04:08:06.889Z,1004.53
2017-02-27T04:08:32.604Z,1004.5
2017-02-27T04:08:58.180Z,1004.44
2017-02-27T04:09:24.519Z,1004.51
2017-02-27T04:10:22.991Z,1004.48
2017-02-27T04:10:48.638Z,1004.5
2017-02-27T04:11:14.190Z,1004.51
2017-02-27T04:11:39.785Z,1004.52
2017-02-27T04:12:05.345Z,1004.47
2017-02-27T04:12:30.971Z,1004.48
2017-02-27T04:12:56.642Z,1004.47
2017-02-27T04:13:22.209Z,1004.47
2017-02-27T04:13:48.574Z,1004.46
2017-02-27T04:14:13.461Z,1004.47
2017-02-27T04:14:39.036Z,1004.43
2017-02-27T04:15:04.691Z,1004.42
2017-02-27T04:15:30.265Z,1004.44
2017-02-27T04:15:55.869Z,1004.43
2017-02-27T04:16:21.514Z,1004.38
2017-02-27T04:16:47.098Z,1004.43
2017-02-27T04:17:12.693Z,1004.42
2017-02-27T04:17:38.272Z,1004.4
2017-02-27T04:18:06.689Z,1004.45
2017-02-27T04:18:33.070Z,1004.45
2017-02-27T04:18:57.926Z,1004.41
2017-02-27T04:19:23.561Z,1004.43
2017-02-27T04:19:49.144Z,1004.41
2017-02-27T04:20:14.751Z,1004.47
2017-02-27T04:20:40.361Z,1004.46
2017-02-27T04:21:05.998Z,1004.38
2017-02-27T04:21:31.662Z,1004.43
2017-02-27T04:21:57.967Z,1004.4
2017-02-27T04:22:23.534Z,1004.39
2017-02-27T04:22:49.088Z,1004.35
2017-02-27T04:23:14.781Z,1004.38
2017-02-27T04:24:55.618Z,1004.33
2017-02-27T04:25:21.146Z,1004.3
2017-02-27T04:25:46.816Z,1004.37
2017-02-27T04:26:12.379Z,1004.34
2017-02-27T04:26:38.064Z,1004.34
2017-02-27T04:27:03.656Z,1004.32
2017-02-27T04:27:29.211Z,1004.28
2017-02-27T04:27:54.817Z,1004.31
2017-02-27T04:28:20.358Z,1004.31
2017-02-27T04:28:45.990Z,1004.32
2017-02-27T04:29:11.558Z,1004.3
2017-02-27T04:29:38.105Z,1004.27
2017-02-27T04:30:03.677Z,1004.3
2017-02-27T04:30:29.230Z,1004.28
2017-02-27T04:30:54.875Z,1004.27
2017-02-27T04:31:20.462Z,1004.29
2017-02-27T04:31:46.062Z,1004.24
2017-02-27T04:32:11.629Z,1004.29
2017-02-27T04:32:37.281Z,1004.27
2017-02-27T04:33:02.976Z,1004.25
2017-02-27T04:33:28.523Z,1004.21
2017-02-27T04:33:54.250Z,1004.27
2017-02-27T04:34:19.814Z,1004.24
2017-02-27T04:34:45.372Z,1004.27
2017-02-27T04:35:11.087Z,1004.24
2017-02-27T04:35:36.656Z,1004.24
2017-02-27T04:36:02.326Z,1004.19
2017-02-27T04:36:27.983Z,1004.24
2017-02-27T04:36:53.662Z,1004.22
2017-02-27T04:37:19.319Z,1004.2
2017-02-27T04:37:44.898Z,1004.17
2017-02-27T04:38:10.454Z,1004.16
2017-02-27T04:38:36.168Z,1004.18
2017-02-27T04:39:01.738Z,1004.18
2017-02-27T04:39:27.302Z,1004.22
2017-02-27T04:39:52.965Z,1004.15
2017-02-27T04:40:18.506Z,1004.16
2017-02-27T04:40:44.204Z,1004.16
2017-02-27T04:41:09.784Z,1004.11
2017-02-27T04:41:35.346Z,1004.12
2017-02-27T04:42:00.937Z,1004.14
2017-02-27T04:42:26.558Z,1004.12
2017-02-27T04:42:52.210Z,1004.1
2017-02-27T04:43:17.761Z,1004.13
2017-02-27T04:43:43.443Z,1004.1
2017-02-27T04:44:09.088Z,1004.13
2017-02-27T04:44:34.666Z,1004.15
2017-02-27T04:45:00.271Z,1004.12
2017-02-27T04:45:25.831Z,1004.13
2017-02-27T04:45:51.452Z,1004.11
2017-02-27T04:46:17.003Z,1004.09
2017-02-27T04:46:42.562Z,1004.14
2017-02-27T04:47:08.213Z,1004.16
2017-02-27T04:47:33.776Z,1004.12
2017-02-27T04:47:59.378Z,1004.13
2017-02-27T04:48:25.035Z,1004.15
2017-02-27T04:48:50.602Z,1004.13
2017-02-27T04:49:16.202Z,1004.08
2017-02-27T04:49:41.776Z,1004.11
2017-02-27T04:50:07.440Z,1004.09
2017-02-27T04:50:33.105Z,1004.08
2017-02-27T04:50:58.665Z,1004.12
2017-02-27T04:51:25.229Z,1004.11
2017-02-27T04:51:50.784Z,1004.06
2017-02-27T04:52:16.555Z,1004.1
2017-02-27T04:52:42.150Z,1004.09
2017-02-27T04:53:07.721Z,1004.04
2017-02-27T04:53:33.346Z,1004.03
2017-02-27T04:53:59.111Z,1004.03
2017-02-27T04:54:24.692Z,1004.02
2017-02-27T04:54:50.262Z,1004.03
2017-02-27T04:55:16.355Z,1004.01
2017-02-27T04:55:42.501Z,1004.06
2017-02-27T04:56:08.121Z,1004.02
2017-02-27T04:56:33.704Z,1004.01
2017-02-27T04:56:59.381Z,1004.02
2017-02-27T04:57:24.940Z,1004.04
2017-02-27T04:57:50.551Z,1004
2017-02-27T04:58:16.198Z,1003.96
2017-02-27T04:58:41.765Z,1003.99
2017-02-27T04:59:07.350Z,1003.98
2017-02-27T04:59:33.031Z,1003.97
2017-02-27T04:59:58.703Z,1003.97
2017-02-27T05:00:24.325Z,1003.95
2017-02-27T05:01:22.756Z,1003.9
2017-02-27T05:01:48.425Z,1003.93
2017-02-27T05:02:13.980Z,1003.95
2017-02-27T05:02:39.606Z,1003.9
2017-02-27T05:03:05.275Z,1003.9
2017-02-27T05:03:30.979Z,1003.88
2017-02-27T05:03:57.398Z,1003.89
2017-02-27T05:04:22.967Z,1003.91
2017-02-27T05:04:49.341Z,1003.88
2017-02-27T05:05:14.904Z,1003.86
2017-02-27T05:05:40.528Z,1003.87
2017-02-27T05:06:06.080Z,1003.88
2017-02-27T05:06:31.665Z,1003.87
2017-02-27T05:06:57.341Z,1003.88
2017-02-27T05:07:22.900Z,1003.86
2017-02-27T05:07:48.499Z,1003.86
2017-02-27T05:08:14.079Z,1003.86
2017-02-27T05:08:39.662Z,1003.87
2017-02-27T05:09:05.334Z,1003.82
2017-02-27T05:09:30.936Z,1003.81
2017-02-27T05:09:56.608Z,1003.85
2017-02-27T05:10:22.151Z,1003.84
2017-02-27T05:10:47.795Z,1003.82
2017-02-27T05:11:13.399Z,1003.84
2017-02-27T05:11:38.956Z,1003.81
2017-02-27T05:12:04.544Z,1003.85
2017-02-27T05:12:30.129Z,1003.83
2017-02-27T05:13:43.873Z,1003.79
2017-02-27T05:14:09.624Z,1003.79
2017-02-27T05:14:35.199Z,1003.77
2017-02-27T05:15:00.831Z,1003.79
2017-02-27T05:15:26.411Z,1003.76
2017-02-27T05:15:51.992Z,1003.79
2017-02-27T05:16:17.621Z,1003.75
2017-02-27T05:16:43.191Z,1003.78
2017-02-27T05:17:08.888Z,1003.79
2017-02-27T05:17:34.489Z,1003.76
2017-02-27T05:18:00.031Z,1003.75
2017-02-27T05:18:25.641Z,1003.68
2017-02-27T05:18:51.228Z,1003.74
2017-02-27T05:19:16.816Z,1003.74
2017-02-27T05:19:42.422Z,1003.73
2017-02-27T05:20:07.997Z,1003.76
2017-02-27T05:20:33.690Z,1003.76
2017-02-27T05:20:59.265Z,1003.75
2017-02-27T05:22:13.368Z,1003.76
2017-02-27T05:22:39.034Z,1003.71
2017-02-27T05:23:04.592Z,1003.74
2017-02-27T05:23:30.160Z,1003.75
2017-02-27T05:23:55.748Z,1003.72
2017-02-27T05:24:21.306Z,1003.74
2017-02-27T05:24:46.984Z,1003.71
2017-02-27T05:25:13.315Z,1003.74
2017-02-27T05:25:38.946Z,1003.75
2017-02-27T05:26:04.591Z,1003.71
2017-02-27T05:26:30.263Z,1003.73
2017-02-27T05:26:55.877Z,1003.68
2017-02-27T05:28:14.780Z,1003.75
2017-02-27T05:28:40.333Z,1003.75
2017-02-27T05:29:05.928Z,1003.75
2017-02-27T05:29:31.496Z,1003.73
2017-02-27T05:29:57.127Z,1003.74
2017-02-27T05:30:22.790Z,1003.77
2017-02-27T05:30:48.349Z,1003.74
2017-02-27T05:31:13.988Z,1003.74
2017-02-27T05:31:39.572Z,1003.73
2017-02-27T05:32:05.154Z,1003.75
2017-02-27T05:32:30.764Z,1003.75
2017-02-27T05:32:56.324Z,1003.75
2017-02-27T05:33:21.952Z,1003.76
2017-02-27T05:33:47.517Z,1003.76
2017-02-27T05:34:13.101Z,1003.8
2017-02-27T05:34:38.727Z,1003.75
2017-02-27T05:35:04.318Z,1003.79
2017-02-27T05:35:29.901Z,1003.76
2017-02-27T05:35:55.491Z,1003.77
2017-02-27T05:36:21.151Z,1003.75
2017-02-27T05:36:46.755Z,1003.73
2017-02-27T05:37:12.320Z,1003.76
2017-02-27T05:37:37.880Z,1003.78
2017-02-27T05:38:03.447Z,1003.76
2017-02-27T05:38:29.099Z,1003.72
2017-02-27T05:38:55.394Z,1003.71
2017-02-27T05:39:20.332Z,1003.7
2017-02-27T05:39:45.971Z,1003.73
2017-02-27T05:40:11.518Z,1003.71
2017-02-27T05:40:37.163Z,1003.72
2017-02-27T05:41:02.802Z,1003.68
2017-02-27T05:41:28.321Z,1003.74
2017-02-27T05:41:53.887Z,1003.69
2017-02-27T05:42:19.667Z,1003.72
2017-02-27T05:42:45.420Z,1003.65
2017-02-27T05:43:11.035Z,1003.66
2017-02-27T05:43:36.597Z,1003.73
2017-02-27T05:44:02.258Z,1003.71
2017-02-27T05:44:28.031Z,1003.71
2017-02-27T05:44:53.589Z,1003.7
2017-02-27T05:45:19.425Z,1003.72
2017-02-27T05:45:45.095Z,1003.73
2017-02-27T05:46:10.657Z,1003.72
2017-02-27T05:46:36.789Z,1003.68
2017-02-27T05:47:02.398Z,1003.67
2017-02-27T05:47:27.979Z,1003.65
2017-02-27T05:47:53.548Z,1003.68
2017-02-27T05:48:19.162Z,1003.69
2017-02-27T05:48:44.827Z,1003.68
2017-02-27T05:49:10.497Z,1003.64
2017-02-27T05:49:36.101Z,1003.68
2017-02-27T05:50:01.689Z,1003.63
2017-02-27T05:50:27.347Z,1003.66
2017-02-27T05:50:53.041Z,1003.65
2017-02-27T05:51:18.616Z,1003.65
2017-02-27T05:51:44.303Z,1003.67
2017-02-27T05:52:09.873Z,1003.66
2017-02-27T05:52:35.490Z,1003.67
2017-02-27T05:53:01.071Z,1003.61
2017-02-27T05:53:26.642Z,1003.64
2017-02-27T05:53:52.302Z,1003.63
2017-02-27T05:54:17.858Z,1003.61
2017-02-27T05:54:43.522Z,1003.67
2017-02-27T05:55:09.091Z,1003.64
2017-02-27T05:55:34.670Z,1003.66
2017-02-27T05:56:00.271Z,1003.7
2017-02-27T05:56:25.853Z,1003.65
2017-02-27T05:56:51.489Z,1003.62
2017-02-27T05:57:17.113Z,1003.69
2017-02-27T05:57:42.696Z,1003.65
2017-02-27T05:58:08.301Z,1003.64
2017-02-27T05:59:16.792Z,1003.64
2017-02-27T05:59:42.452Z,1003.6
2017-02-27T06:00:07.996Z,1003.61
2017-02-27T06:00:33.669Z,1003.64
2017-02-27T06:00:59.258Z,1003.64
2017-02-27T06:01:24.818Z,1003.61
2017-02-27T06:01:50.477Z,1003.61
2017-02-27T06:02:16.598Z,1003.64
2017-02-27T06:02:42.190Z,1003.59
2017-02-27T06:03:08.365Z,1003.62
2017-02-27T06:03:33.922Z,1003.63
2017-02-27T06:03:59.516Z,1003.62
2017-02-27T06:04:25.695Z,1003.6
2017-02-27T06:04:51.329Z,1003.6
2017-02-27T06:05:17.524Z,1003.65
2017-02-27T06:05:43.072Z,1003.59
2017-02-27T06:06:10.452Z,1003.64
2017-02-27T06:06:35.316Z,1003.6
2017-02-27T06:07:00.908Z,1003.59
2017-02-27T06:07:26.635Z,1003.54
2017-02-27T06:07:52.253Z,1003.54
2017-02-27T06:08:18.501Z,1003.52
2017-02-27T06:08:44.129Z,1003.51
2017-02-27T06:09:09.743Z,1003.53
2017-02-27T06:09:35.868Z,1003.53
2017-02-27T06:10:01.519Z,1003.53
2017-02-27T06:10:27.582Z,1003.49
2017-02-27T06:10:53.175Z,1003.48
2017-02-27T06:11:19.490Z,1003.53
2017-02-27T06:11:45.052Z,1003.48
2017-02-27T06:12:10.763Z,1003.45
2017-02-27T06:12:36.769Z,1003.47
2017-02-27T06:13:02.382Z,1003.49
2017-02-27T06:13:28.544Z,1003.46
2017-02-27T06:13:54.095Z,1003.48
2017-02-27T06:14:19.675Z,1003.45
2017-02-27T06:14:45.970Z,1003.45
2017-02-27T06:15:11.655Z,1003.46
2017-02-27T06:15:37.737Z,1003.49
2017-02-27T06:16:03.300Z,1003.43
2017-02-27T06:16:29.448Z,1003.45
2017-02-27T06:16:55.024Z,1003.46
2017-02-27T06:17:20.716Z,1003.45
2017-02-27T06:17:46.906Z,1003.45
2017-02-27T06:18:13.033Z,1003.45
2017-02-27T06:18:38.827Z,1003.42
2017-02-27T06:19:04.385Z,1003.42
2017-02-27T06:19:30.003Z,1003.37
2017-02-27T06:19:56.070Z,1003.39
2017-02-27T06:20:21.730Z,1003.38
2017-02-27T06:20:47.800Z,1003.43
2017-02-27T06:21:13.570Z,1003.38
2017-02-27T06:21:39.618Z,1003.36
2017-02-27T06:22:05.201Z,1003.44
2017-02-27T06:22:31.801Z,1003.41
2017-02-27T06:22:57.373Z,1003.35
2017-02-27T06:23:22.958Z,1003.36
2017-02-27T06:23:48.791Z,1003.37
2017-02-27T06:24:14.367Z,1003.38
2017-02-27T06:24:40.034Z,1003.4
2017-02-27T06:25:06.270Z,1003.33
2017-02-27T06:25:31.940Z,1003.34
2017-02-27T06:25:57.961Z,1003.32
2017-02-27T06:26:23.548Z,1003.31
2017-02-27T06:26:49.688Z,1003.4
2017-02-27T06:27:15.321Z,1003.35
2017-02-27T06:27:41.038Z,1003.32
2017-02-27T06:28:07.051Z,1003.35
2017-02-27T06:28:32.611Z,1003.37
2017-02-27T06:28:58.955Z,1003.39
2017-02-27T06:29:24.515Z,1003.39
2017-02-27T06:29:50.167Z,1003.39
2017-02-27T06:30:16.199Z,1003.39
2017-02-27T06:30:41.774Z,1003.38
2017-02-27T06:31:08.112Z,1003.39
2017-02-27T06:31:33.791Z,1003.36
2017-02-27T06:31:59.810Z,1003.35
2017-02-27T06:32:25.970Z,1003.4
2017-02-27T06:32:51.559Z,1003.36
2017-02-27T06:34:05.272Z,1003.36
2017-02-27T06:34:30.842Z,1003.38
2017-02-27T06:34:56.431Z,1003.32
2017-02-27T06:35:21.984Z,1003.33
2017-02-27T06:35:47.560Z,1003.3
2017-02-27T06:36:13.207Z,1003.33
2017-02-27T06:36:38.829Z,1003.33
2017-02-27T06:37:04.392Z,1003.34
2017-02-27T06:37:30.036Z,1003.37
2017-02-27T06:38:28.454Z,1003.28
2017-02-27T06:38:54.066Z,1003.32
2017-02-27T06:39:19.635Z,1003.34
2017-02-27T06:39:45.300Z,1003.32
2017-02-27T06:40:10.926Z,1003.33
2017-02-27T06:40:36.485Z,1003.34
2017-02-27T06:41:02.108Z,1003.34
2017-02-27T06:41:27.690Z,1003.29
2017-02-27T06:42:42.020Z,1003.35
2017-02-27T06:43:07.578Z,1003.34
2017-02-27T06:43:33.185Z,1003.24
2017-02-27T06:43:58.749Z,1003.33
2017-02-27T06:44:24.383Z,1003.28
2017-02-27T06:44:49.970Z,1003.25
2017-02-27T06:45:15.577Z,1003.22
2017-02-27T06:45:41.211Z,1003.23
2017-02-27T06:46:06.812Z,1003.26
2017-02-27T06:46:32.422Z,1003.25
2017-02-27T06:46:58.073Z,1003.26
2017-02-27T06:47:24.187Z,1003.19
2017-02-27T06:47:54.129Z,1003.26
2017-02-27T06:48:19.708Z,1003.22
2017-02-27T06:48:45.266Z,1003.2
2017-02-27T06:49:11.527Z,1003.17
2017-02-27T06:49:37.088Z,1003.22
2017-02-27T06:50:03.266Z,1003.17
2017-02-27T06:50:28.846Z,1003.19
2017-02-27T06:50:55.048Z,1003.16
2017-02-27T06:51:20.621Z,1003.2
2017-02-27T06:51:46.221Z,1003.18
2017-02-27T06:52:12.471Z,1003.14
2017-02-27T06:52:38.033Z,1003.16
2017-02-27T06:53:04.199Z,1003.11
2017-02-27T06:53:29.770Z,1003.2
2017-02-27T06:53:55.316Z,1003.12
2017-02-27T06:54:21.570Z,1003.16
2017-02-27T06:54:47.160Z,1003.09
2017-02-27T06:55:13.352Z,1003.17
2017-02-27T06:55:38.921Z,1003.14
2017-02-27T06:56:05.129Z,1003.1
2017-02-27T06:56:30.691Z,1003.12
2017-02-27T06:56:56.271Z,1003.13
2017-02-27T06:57:22.535Z,1003.18
2017-02-27T06:57:48.708Z,1003.12
2017-02-27T06:58:14.437Z,1003.1
2017-02-27T06:58:39.994Z,1003.09
2017-02-27T06:59:05.633Z,1003.05
2017-02-27T06:59:31.659Z,1003.14
2017-02-27T06:59:57.217Z,1003.07
2017-02-27T07:00:23.489Z,1003.03
2017-02-27T07:01:27.005Z,1003.05
2017-02-27T07:01:52.569Z,1003.04
2017-02-27T07:02:18.217Z,1003.09
2017-02-27T07:02:43.785Z,1003.02
2017-02-27T07:03:10.112Z,1003.09
2017-02-27T07:03:35.781Z,1003.02
2017-02-27T07:04:01.479Z,1003.12
2017-02-27T07:04:27.041Z,1003.02
2017-02-27T07:04:52.616Z,1003.04
2017-02-27T07:05:18.155Z,1003.06
2017-02-27T07:05:43.702Z,1002.98
2017-02-27T07:06:09.254Z,1003.03
2017-02-27T07:06:34.785Z,1002.99
2017-02-27T07:07:00.341Z,1003.03
2017-02-27T07:07:25.916Z,1002.99
2017-02-27T07:07:52.165Z,1003.01
2017-02-27T07:08:17.069Z,1002.98
2017-02-27T07:08:42.632Z,1002.97
2017-02-27T07:09:08.753Z,1003
2017-02-27T07:09:35.029Z,1002.98
2017-02-27T07:10:00.585Z,1003
2017-02-27T07:10:26.159Z,1003.02
2017-02-27T07:10:51.721Z,1002.94
2017-02-27T07:11:17.321Z,1002.96
2017-02-27T07:11:42.890Z,1002.99
2017-02-27T07:12:08.471Z,1002.91
2017-02-27T07:12:34.232Z,1002.97
2017-02-27T07:12:59.778Z,1002.94
2017-02-27T07:13:25.339Z,1002.94
2017-02-27T07:13:50.901Z,1002.94
2017-02-27T07:14:16.483Z,1002.95
2017-02-27T07:14:42.053Z,1002.95
2017-02-27T07:15:07.622Z,1002.9
2017-02-27T07:15:33.170Z,1002.92
2017-02-27T07:15:58.732Z,1002.97
2017-02-27T07:16:24.322Z,1002.91
2017-02-27T07:16:49.869Z,1002.91
2017-02-27T07:17:15.415Z,1002.94
2017-02-27T07:17:41.662Z,1002.94
2017-02-27T07:18:06.628Z,1002.89
2017-02-27T07:18:32.203Z,1002.89
2017-02-27T07:18:57.762Z,1002.96
2017-02-27T07:19:23.318Z,1002.91
2017-02-27T07:19:48.900Z,1002.91
2017-02-27T07:20:14.500Z,1002.85
2017-02-27T07:20:40.076Z,1002.88
2017-02-27T07:21:05.715Z,1002.89
2017-02-27T07:21:31.320Z,1002.84
2017-02-27T07:21:56.892Z,1002.88
2017-02-27T07:22:22.443Z,1002.87
2017-02-27T07:22:48.699Z,1002.86
2017-02-27T07:23:14.287Z,1002.88
2017-02-27T07:23:40.683Z,1002.86
2017-02-27T07:24:06.564Z,1002.88
2017-02-27T07:24:32.129Z,1002.91
2017-02-27T07:24:57.698Z,1002.85
2017-02-27T07:25:24.171Z,1002.86
2017-02-27T07:25:48.853Z,1002.92
2017-02-27T07:26:14.400Z,1002.88
2017-02-27T07:26:39.940Z,1002.88
2017-02-27T07:27:05.468Z,1002.83
2017-02-27T07:28:08.919Z,1002.88
2017-02-27T07:28:34.480Z,1002.86
2017-02-27T07:29:00.165Z,1002.86
2017-02-27T07:29:25.732Z,1002.82
2017-02-27T07:29:51.309Z,1002.82
2017-02-27T07:30:17.002Z,1002.87
2017-02-27T07:30:42.580Z,1002.83
2017-02-27T07:31:08.513Z,1002.85
2017-02-27T07:31:34.060Z,1002.8
2017-02-27T07:31:59.643Z,1002.79
2017-02-27T07:32:25.190Z,1002.76
2017-02-27T07:32:50.727Z,1002.82
2017-02-27T07:33:16.285Z,1002.79
2017-02-27T07:33:41.822Z,1002.79
2017-02-27T07:34:07.381Z,1002.77
2017-02-27T07:34:33.060Z,1002.74
2017-02-27T07:34:58.621Z,1002.78
2017-02-27T07:35:24.187Z,1002.75
2017-02-27T07:35:50.252Z,1002.76
2017-02-27T07:36:15.888Z,1002.75
2017-02-27T07:36:41.471Z,1002.74
2017-02-27T07:37:07.045Z,1002.72
2017-02-27T07:37:32.616Z,1002.74
2017-02-27T07:37:58.179Z,1002.71
2017-02-27T07:38:23.745Z,1002.72
2017-02-27T07:38:49.340Z,1002.74
2017-02-27T07:39:14.900Z,1002.72
2017-02-27T07:39:40.486Z,1002.73
2017-02-27T07:40:06.049Z,1002.72
2017-02-27T07:40:31.608Z,1002.71
2017-02-27T07:40:57.189Z,1002.69
2017-02-27T07:41:22.859Z,1002.72
2017-02-27T07:41:48.412Z,1002.68
2017-02-27T07:42:14.096Z,1002.72
2017-02-27T07:42:39.667Z,1002.75
2017-02-27T07:43:05.226Z,1002.67
2017-02-27T07:43:30.800Z,1002.68
2017-02-27T07:43:56.476Z,1002.65
2017-02-27T07:44:22.060Z,1002.68
2017-02-27T07:44:47.624Z,1002.66
2017-02-27T07:45:13.212Z,1002.7
2017-02-27T07:45:38.774Z,1002.64
2017-02-27T07:46:04.320Z,1002.68
2017-02-27T07:46:29.888Z,1002.67
2017-02-27T07:46:55.434Z,1002.65
2017-02-27T07:47:21.078Z,1002.65
2017-02-27T07:47:46.639Z,1002.61
2017-02-27T07:48:12.197Z,1002.59
2017-02-27T07:48:37.836Z,1002.61
2017-02-27T07:49:03.383Z,1002.61
2017-02-27T07:49:28.956Z,1002.56
2017-02-27T07:49:54.526Z,1002.6
2017-02-27T07:50:20.089Z,1002.61
2017-02-27T07:50:45.646Z,1002.6
2017-02-27T07:51:11.305Z,1002.6
2017-02-27T07:51:37.402Z,1002.58
2017-02-27T07:52:02.949Z,1002.56
2017-02-27T07:52:28.499Z,1002.53
2017-02-27T07:52:54.076Z,1002.56
2017-02-27T07:53:20.138Z,1002.54
2017-02-27T07:53:45.159Z,1002.52
2017-02-27T07:54:10.718Z,1002.57
2017-02-27T07:54:36.352Z,1002.53
2017-02-27T07:55:01.888Z,1002.56
2017-02-27T07:55:27.449Z,1002.53
2017-02-27T07:55:53.080Z,1002.53
2017-02-27T07:56:18.639Z,1002.52
2017-02-27T07:56:44.188Z,1002.51
2017-02-27T07:57:09.735Z,1002.53
2017-02-27T07:57:35.940Z,1002.59
2017-02-27T07:58:01.496Z,1002.49
2017-02-27T07:58:27.088Z,1002.51
2017-02-27T07:58:52.657Z,1002.51
2017-02-27T07:59:18.212Z,1002.48
2017-02-27T07:59:43.767Z,1002.53
2017-02-27T08:00:10.218Z,1002.53
2017-02-27T08:00:35.777Z,1002.48
2017-02-27T08:01:01.329Z,1002.48
2017-02-27T08:01:26.902Z,1002.52
2017-02-27T08:01:52.501Z,1002.53
2017-02-27T08:02:18.062Z,1002.55
2017-02-27T08:02:43.625Z,1002.51
2017-02-27T08:03:09.239Z,1002.51
2017-02-27T08:03:34.804Z,1002.52
2017-02-27T08:04:00.386Z,1002.51
2017-02-27T08:04:25.943Z,1002.54
2017-02-27T08:04:51.497Z,1002.55
2017-02-27T08:05:17.064Z,1002.57
2017-02-27T08:05:43.147Z,1002.54
2017-02-27T08:06:08.736Z,1002.53
2017-02-27T08:06:34.303Z,1002.54
2017-02-27T08:06:59.978Z,1002.56
2017-02-27T08:07:25.592Z,1002.54
2017-02-27T08:07:51.159Z,1002.54
2017-02-27T08:08:16.783Z,1002.55
2017-02-27T08:08:42.450Z,1002.49
2017-02-27T08:09:08.037Z,1002.48
2017-02-27T08:09:33.590Z,1002.48
2017-02-27T08:09:59.156Z,1002.51
2017-02-27T08:10:24.748Z,1002.54
2017-02-27T08:10:50.340Z,1002.48
2017-02-27T08:11:15.902Z,1002.49
2017-02-27T08:11:41.489Z,1002.56
2017-02-27T08:12:07.037Z,1002.47
2017-02-27T08:12:32.671Z,1002.5
2017-02-27T08:12:58.350Z,1002.46
2017-02-27T08:13:23.927Z,1002.5
2017-02-27T08:13:50.096Z,1002.48
2017-02-27T08:14:15.678Z,1002.45
2017-02-27T08:14:41.233Z,1002.46
2017-02-27T08:15:06.800Z,1002.5
2017-02-27T08:15:32.458Z,1002.49
2017-02-27T08:15:58.008Z,1002.46
2017-02-27T08:16:23.585Z,1002.48
2017-02-27T08:16:49.132Z,1002.47
2017-02-27T08:17:14.859Z,1002.46
2017-02-27T08:17:40.428Z,1002.47
2017-02-27T08:18:06.051Z,1002.49
2017-02-27T08:18:31.702Z,1002.44
2017-02-27T08:18:57.789Z,1002.47
2017-02-27T08:19:23.363Z,1002.53
2017-02-27T08:19:48.970Z,1002.46
2017-02-27T08:20:14.532Z,1002.45
2017-02-27T08:20:40.101Z,1002.47
2017-02-27T08:21:05.649Z,1002.44
2017-02-27T08:22:24.481Z,1002.43
2017-02-27T08:22:50.042Z,1002.47
2017-02-27T08:23:15.597Z,1002.44
2017-02-27T08:23:41.186Z,1002.43
2017-02-27T08:24:06.790Z,1002.44
2017-02-27T08:24:32.419Z,1002.4
2017-02-27T08:24:58.022Z,1002.39
2017-02-27T08:25:23.620Z,1002.39
2017-02-27T08:25:49.182Z,1002.37
2017-02-27T08:26:14.742Z,1002.37
2017-02-27T08:26:40.288Z,1002.33
2017-02-27T08:27:05.911Z,1002.34
2017-02-27T08:27:31.486Z,1002.34
2017-02-27T08:27:57.061Z,1002.3
2017-02-27T08:28:22.637Z,1002.34
2017-02-27T08:28:49.168Z,1002.29
2017-02-27T08:29:13.784Z,1002.32
2017-02-27T08:29:39.320Z,1002.31
2017-02-27T08:30:04.988Z,1002.32
2017-02-27T08:30:30.634Z,1002.33
2017-02-27T08:30:56.207Z,1002.24
2017-02-27T08:31:21.780Z,1002.25
2017-02-27T08:31:47.339Z,1002.26
2017-02-27T08:32:12.913Z,1002.27
2017-02-27T08:32:38.476Z,1002.27
2017-02-27T08:33:04.063Z,1002.27
2017-02-27T08:33:29.637Z,1002.29
2017-02-27T08:33:55.212Z,1002.23
2017-02-27T08:34:20.775Z,1002.21
2017-02-27T08:34:46.356Z,1002.25
2017-02-27T08:35:11.911Z,1002.28
2017-02-27T08:35:39.991Z,1002.24
2017-02-27T08:36:05.563Z,1002.29
2017-02-27T08:36:31.141Z,1002.24
2017-02-27T08:36:56.702Z,1002.2
2017-02-27T08:37:22.284Z,1002.21
2017-02-27T08:37:47.877Z,1002.18
2017-02-27T08:38:13.441Z,1002.13
2017-02-27T08:38:39.015Z,1002.17
2017-02-27T08:39:04.593Z,1002.19
2017-02-27T08:39:30.216Z,1002.16
2017-02-27T08:39:55.781Z,1002.15
2017-02-27T08:40:21.474Z,1002.16
2017-02-27T08:40:47.052Z,1002.13
2017-02-27T08:41:12.638Z,1002.13
2017-02-27T08:41:38.240Z,1002.17
2017-02-27T08:42:03.796Z,1002.16
2017-02-27T08:42:29.357Z,1002.11
2017-02-27T08:42:54.979Z,1002.21
2017-02-27T08:43:20.527Z,1002.12
2017-02-27T08:43:46.690Z,1002.12
2017-02-27T08:44:11.681Z,1002.13
2017-02-27T08:44:37.269Z,1002.13
2017-02-27T08:45:02.877Z,1002.13
2017-02-27T08:45:28.460Z,1002.09
2017-02-27T08:45:54.016Z,1002.06
2017-02-27T08:46:19.543Z,1002.07
2017-02-27T08:46:45.077Z,1002.04
2017-02-27T08:47:10.647Z,1002.09
2017-02-27T08:47:36.250Z,1002.01
2017-02-27T08:48:01.812Z,1002.01
2017-02-27T08:48:27.360Z,1001.99
2017-02-27T08:48:52.951Z,1002.02
2017-02-27T08:49:19.196Z,1002
2017-02-27T08:49:44.773Z,1001.95
2017-02-27T08:50:10.369Z,1001.94
2017-02-27T08:50:35.972Z,1001.99
2017-02-27T08:51:01.537Z,1001.98
2017-02-27T08:51:27.163Z,1002.02
2017-02-27T08:51:52.724Z,1002.01
2017-02-27T08:52:18.291Z,1001.98
2017-02-27T08:52:43.884Z,1001.91
2017-02-27T08:53:09.474Z,1001.94
2017-02-27T08:53:35.032Z,1002
2017-02-27T08:54:00.608Z,1001.97
2017-02-27T08:54:26.183Z,1001.99
2017-02-27T08:54:51.742Z,1001.99
2017-02-27T08:55:17.283Z,1002.03
2017-02-27T08:55:42.842Z,1001.96
2017-02-27T08:56:08.402Z,1001.96
2017-02-27T08:56:34.049Z,1001.94
2017-02-27T08:56:59.644Z,1001.9
2017-02-27T08:57:25.220Z,1001.94
2017-02-27T08:57:50.778Z,1001.88
2017-02-27T08:58:16.351Z,1001.89
2017-02-27T08:58:41.909Z,1001.96
2017-02-27T08:59:07.500Z,1001.91
2017-02-27T08:59:33.064Z,1001.83
2017-02-27T08:59:58.622Z,1001.93
2017-02-27T09:00:24.372Z,1001.87
2017-02-27T09:00:49.928Z,1001.92
2017-02-27T09:01:15.550Z,1001.89
2017-02-27T09:01:41.158Z,1001.86
2017-02-27T09:02:06.749Z,1001.83
2017-02-27T09:02:32.340Z,1001.83
2017-02-27T09:02:57.913Z,1001.84
2017-02-27T09:03:23.479Z,1001.87
2017-02-27T09:03:49.057Z,1001.84
2017-02-27T09:04:14.667Z,1001.84
2017-02-27T09:04:40.267Z,1001.78
2017-02-27T09:05:05.874Z,1001.84
2017-02-27T09:05:31.426Z,1001.83
2017-02-27T09:05:56.961Z,1001.83
2017-02-27T09:06:22.545Z,1001.76
2017-02-27T09:06:48.091Z,1001.76
2017-02-27T09:07:14.186Z,1001.8
2017-02-27T09:07:39.242Z,1001.8
2017-02-27T09:08:04.820Z,1001.76
2017-02-27T09:08:30.507Z,1001.75
2017-02-27T09:08:56.057Z,1001.78
2017-02-27T09:09:21.681Z,1001.71
2017-02-27T09:09:47.252Z,1001.72
2017-02-27T09:10:12.811Z,1001.73
2017-02-27T09:10:38.371Z,1001.73
2017-02-27T09:11:03.914Z,1001.76
2017-02-27T09:11:29.468Z,1001.76
2017-02-27T09:11:55.093Z,1001.68
2017-02-27T09:12:20.712Z,1001.72
2017-02-27T09:12:46.286Z,1001.73
2017-02-27T09:13:11.863Z,1001.68
2017-02-27T09:13:37.471Z,1001.66
2017-02-27T09:14:03.041Z,1001.72
2017-02-27T09:14:29.179Z,1001.7
2017-02-27T09:14:54.188Z,1001.62
2017-02-27T09:15:19.832Z,1001.71
2017-02-27T09:15:45.397Z,1001.64
2017-02-27T09:16:11.687Z,1001.63
2017-02-27T09:16:36.577Z,1001.62
2017-02-27T09:17:02.155Z,1001.69
2017-02-27T09:17:27.773Z,1001.61
2017-02-27T09:17:53.451Z,1001.64
2017-02-27T09:18:19.689Z,1001.64
2017-02-27T09:18:44.662Z,1001.65
2017-02-27T09:19:10.209Z,1001.63
2017-02-27T09:19:35.882Z,1001.63
2017-02-27T09:20:01.452Z,1001.62
2017-02-27T09:20:27.081Z,1001.63
2017-02-27T09:20:52.671Z,1001.59
2017-02-27T09:21:18.233Z,1001.62
2017-02-27T09:21:43.819Z,1001.58